sensor_id;sensor_type;location;lat;lon;timestamp;P1;durP1;ratioP1;P2;durP2;ratioP2
16407;SDS011;8313;49.894;8.084;2023-03-01T00:01:27;8.37;;;5.20;;
16407;SDS011;8313;49.894;8.084;2023-03-01T00:03:55;9.63;;;5.60;;
16407;SDS011;8313;49.894;8.084;2023-03-01T00:06:21;9.73;;;4.80;;
16407;SDS011;8313;49.894;8.084;2023-03-01T00:08:48;10.80;;;5.80;;
16407;SDS011;8313;49.894;8.084;2023-03-01T00:11:15;7.83;;;5.60;;
16407;SDS011;8313;49.894;8.084;2023-03-01T00:13:42;8.17;;;5.13;;
16407;SDS011;8313;49.894;8.084;2023-03-01T00:16:15;14.80;;;5.63;;
16407;SDS011;8313;49.894;8.084;2023-03-01T00:18:44;6.03;;;4.80;;
16407;SDS011;8313;49.894;8.084;2023-03-01T00:21:10;10.97;;;5.40;;
16407;SDS011;8313;49.894;8.084;2023-03-01T00:23:36;8.50;;;5.43;;
16407;SDS011;8313;49.894;8.084;2023-03-01T00:26:05;8.90;;;6.33;;
16407;SDS011;8313;49.894;8.084;2023-03-01T00:28:32;7.17;;;5.07;;
16407;SDS011;8313;49.894;8.084;2023-03-01T00:31:07;12.27;;;6.13;;
16407;SDS011;8313;49.894;8.084;2023-03-01T00:33:35;7.60;;;5.00;;
16407;SDS011;8313;49.894;8.084;2023-03-01T00:36:02;6.37;;;4.60;;
16407;SDS011;8313;49.894;8.084;2023-03-01T00:38:28;10.67;;;6.27;;
16407;SDS011;8313;49.894;8.084;2023-03-01T00:40:54;9.77;;;5.07;;
16407;SDS011;8313;49.894;8.084;2023-03-01T00:43:20;10.50;;;5.60;;
16407;SDS011;8313;49.894;8.084;2023-03-01T00:45:46;9.17;;;5.40;;
16407;SDS011;8313;49.894;8.084;2023-03-01T00:48:12;9.43;;;6.60;;
16407;SDS011;8313;49.894;8.084;2023-03-01T00:50:37;12.40;;;5.60;;
16407;SDS011;8313;49.894;8.084;2023-03-01T00:53:03;12.90;;;6.13;;
16407;SDS011;8313;49.894;8.084;2023-03-01T00:55:30;11.57;;;5.20;;
16407;SDS011;8313;49.894;8.084;2023-03-01T00:57:55;13.17;;;6.33;;
16407;SDS011;8313;49.894;8.084;2023-03-01T01:00:21;9.43;;;6.20;;
16407;SDS011;8313;49.894;8.084;2023-03-01T01:02:47;8.83;;;5.60;;
16407;SDS011;8313;49.894;8.084;2023-03-01T01:05:13;11.47;;;5.40;;
16407;SDS011;8313;49.894;8.084;2023-03-01T01:07:39;9.33;;;5.57;;
16407;SDS011;8313;49.894;8.084;2023-03-01T01:10:05;11.60;;;5.07;;
16407;SDS011;8313;49.894;8.084;2023-03-01T01:12:32;9.70;;;6.13;;
16407;SDS011;8313;49.894;8.084;2023-03-01T01:14:58;11.80;;;5.70;;
16407;SDS011;8313;49.894;8.084;2023-03-01T01:17:23;7.83;;;5.20;;
16407;SDS011;8313;49.894;8.084;2023-03-01T01:19:49;7.40;;;5.10;;
16407;SDS011;8313;49.894;8.084;2023-03-01T01:22:15;10.60;;;6.47;;
16407;SDS011;8313;49.894;8.084;2023-03-01T01:24:40;10.93;;;5.60;;
16407;SDS011;8313;49.894;8.084;2023-03-01T01:27:06;7.93;;;5.23;;
16407;SDS011;8313;49.894;8.084;2023-03-01T01:29:32;8.57;;;5.00;;
16407;SDS011;8313;49.894;8.084;2023-03-01T01:31:58;10.07;;;6.60;;
16407;SDS011;8313;49.894;8.084;2023-03-01T01:34:24;9.57;;;6.17;;
16407;SDS011;8313;49.894;8.084;2023-03-01T01:36:53;10.83;;;6.40;;
16407;SDS011;8313;49.894;8.084;2023-03-01T01:39:19;10.20;;;5.53;;
16407;SDS011;8313;49.894;8.084;2023-03-01T01:41:45;7.17;;;5.37;;
16407;SDS011;8313;49.894;8.084;2023-03-01T01:44:15;10.60;;;6.60;;
16407;SDS011;8313;49.894;8.084;2023-03-01T01:51:45;11.87;;;7.00;;
16407;SDS011;8313;49.894;8.084;2023-03-01T01:54:15;14.97;;;6.73;;
16407;SDS011;8313;49.894;8.084;2023-03-01T01:56:55;9.33;;;5.13;;
16407;SDS011;8313;49.894;8.084;2023-03-01T01:59:29;10.87;;;5.80;;
16407;SDS011;8313;49.894;8.084;2023-03-01T02:01:57;7.50;;;5.40;;
16407;SDS011;8313;49.894;8.084;2023-03-01T02:04:27;8.47;;;5.80;;
16407;SDS011;8313;49.894;8.084;2023-03-01T02:07:06;10.30;;;5.43;;
16407;SDS011;8313;49.894;8.084;2023-03-01T02:09:34;9.07;;;5.57;;
16407;SDS011;8313;49.894;8.084;2023-03-01T02:12:00;8.83;;;5.90;;
16407;SDS011;8313;49.894;8.084;2023-03-01T02:14:27;9.67;;;5.87;;
16407;SDS011;8313;49.894;8.084;2023-03-01T02:16:52;10.20;;;6.07;;
16407;SDS011;8313;49.894;8.084;2023-03-01T02:19:34;7.97;;;5.47;;
16407;SDS011;8313;49.894;8.084;2023-03-01T02:22:07;10.60;;;5.60;;
16407;SDS011;8313;49.894;8.084;2023-03-01T02:27:26;11.10;;;5.77;;
16407;SDS011;8313;49.894;8.084;2023-03-01T02:30:01;9.53;;;5.63;;
16407;SDS011;8313;49.894;8.084;2023-03-01T02:32:27;12.07;;;6.43;;
16407;SDS011;8313;49.894;8.084;2023-03-01T02:34:54;12.10;;;6.93;;
16407;SDS011;8313;49.894;8.084;2023-03-01T02:37:20;18.60;;;5.73;;
16407;SDS011;8313;49.894;8.084;2023-03-01T02:39:50;11.70;;;5.93;;
16407;SDS011;8313;49.894;8.084;2023-03-01T02:42:23;9.23;;;5.87;;
16407;SDS011;8313;49.894;8.084;2023-03-01T02:44:55;12.30;;;6.87;;
16407;SDS011;8313;49.894;8.084;2023-03-01T02:47:21;13.20;;;6.43;;
16407;SDS011;8313;49.894;8.084;2023-03-01T02:49:47;13.07;;;6.30;;
16407;SDS011;8313;49.894;8.084;2023-03-01T02:55:01;18.33;;;7.30;;
16407;SDS011;8313;49.894;8.084;2023-03-01T02:57:35;20.67;;;5.40;;
16407;SDS011;8313;49.894;8.084;2023-03-01T03:00:04;7.67;;;6.13;;
16407;SDS011;8313;49.894;8.084;2023-03-01T03:02:33;10.20;;;5.93;;
16407;SDS011;8313;49.894;8.084;2023-03-01T03:05:17;7.63;;;5.13;;
16407;SDS011;8313;49.894;8.084;2023-03-01T03:07:45;9.23;;;6.70;;
16407;SDS011;8313;49.894;8.084;2023-03-01T03:10:13;8.53;;;5.93;;
16407;SDS011;8313;49.894;8.084;2023-03-01T03:12:41;8.00;;;5.90;;
16407;SDS011;8313;49.894;8.084;2023-03-01T03:15:08;9.17;;;5.00;;
16407;SDS011;8313;49.894;8.084;2023-03-01T03:17:38;11.83;;;6.20;;
16407;SDS011;8313;49.894;8.084;2023-03-01T03:20:05;12.00;;;6.40;;
16407;SDS011;8313;49.894;8.084;2023-03-01T03:22:36;12.47;;;6.23;;
16407;SDS011;8313;49.894;8.084;2023-03-01T03:25:06;9.63;;;5.93;;
16407;SDS011;8313;49.894;8.084;2023-03-01T03:27:39;9.27;;;6.70;;
16407;SDS011;8313;49.894;8.084;2023-03-01T03:30:07;10.97;;;6.80;;
16407;SDS011;8313;49.894;8.084;2023-03-01T03:32:37;12.50;;;5.30;;
16407;SDS011;8313;49.894;8.084;2023-03-01T03:35:05;11.13;;;5.70;;
16407;SDS011;8313;49.894;8.084;2023-03-01T03:37:40;12.70;;;6.50;;
16407;SDS011;8313;49.894;8.084;2023-03-01T03:40:29;8.90;;;5.40;;
16407;SDS011;8313;49.894;8.084;2023-03-01T03:42:56;9.60;;;6.03;;
16407;SDS011;8313;49.894;8.084;2023-03-01T03:45:22;11.43;;;5.83;;
16407;SDS011;8313;49.894;8.084;2023-03-01T03:47:48;8.67;;;5.97;;
16407;SDS011;8313;49.894;8.084;2023-03-01T03:50:14;10.40;;;6.43;;
16407;SDS011;8313;49.894;8.084;2023-03-01T03:52:41;9.07;;;5.23;;
16407;SDS011;8313;49.894;8.084;2023-03-01T03:55:08;13.97;;;6.33;;
16407;SDS011;8313;49.894;8.084;2023-03-01T03:57:35;8.97;;;5.70;;
16407;SDS011;8313;49.894;8.084;2023-03-01T04:00:16;9.20;;;5.73;;
16407;SDS011;8313;49.894;8.084;2023-03-01T04:02:44;9.87;;;6.10;;
16407;SDS011;8313;49.894;8.084;2023-03-01T04:05:11;9.97;;;6.53;;
16407;SDS011;8313;49.894;8.084;2023-03-01T04:07:38;10.63;;;6.03;;
16407;SDS011;8313;49.894;8.084;2023-03-01T04:10:04;11.13;;;6.50;;
16407;SDS011;8313;49.894;8.084;2023-03-01T04:12:32;12.63;;;5.67;;
16407;SDS011;8313;49.894;8.084;2023-03-01T04:15:00;11.40;;;6.80;;
16407;SDS011;8313;49.894;8.084;2023-03-01T04:17:26;9.67;;;6.00;;
16407;SDS011;8313;49.894;8.084;2023-03-01T04:19:52;15.90;;;7.37;;
16407;SDS011;8313;49.894;8.084;2023-03-01T04:22:18;11.43;;;6.30;;
16407;SDS011;8313;49.894;8.084;2023-03-01T04:24:44;10.30;;;6.53;;
16407;SDS011;8313;49.894;8.084;2023-03-01T04:27:11;10.17;;;6.40;;
16407;SDS011;8313;49.894;8.084;2023-03-01T04:29:37;12.47;;;6.13;;
16407;SDS011;8313;49.894;8.084;2023-03-01T04:32:02;15.00;;;7.27;;
16407;SDS011;8313;49.894;8.084;2023-03-01T04:34:29;9.87;;;5.83;;
16407;SDS011;8313;49.894;8.084;2023-03-01T04:36:55;12.40;;;7.40;;
16407;SDS011;8313;49.894;8.084;2023-03-01T04:39:20;16.33;;;6.83;;
16407;SDS011;8313;49.894;8.084;2023-03-01T04:41:46;11.20;;;6.27;;
16407;SDS011;8313;49.894;8.084;2023-03-01T04:44:12;16.93;;;8.00;;
16407;SDS011;8313;49.894;8.084;2023-03-01T04:46:38;8.00;;;5.53;;
16407;SDS011;8313;49.894;8.084;2023-03-01T04:49:04;9.40;;;5.77;;
16407;SDS011;8313;49.894;8.084;2023-03-01T04:51:30;9.90;;;5.77;;
16407;SDS011;8313;49.894;8.084;2023-03-01T04:53:57;14.47;;;7.53;;
16407;SDS011;8313;49.894;8.084;2023-03-01T04:56:25;10.60;;;5.73;;
16407;SDS011;8313;49.894;8.084;2023-03-01T04:58:52;11.17;;;6.87;;
16407;SDS011;8313;49.894;8.084;2023-03-01T05:01:19;13.47;;;6.77;;
16407;SDS011;8313;49.894;8.084;2023-03-01T05:03:49;12.20;;;7.23;;
16407;SDS011;8313;49.894;8.084;2023-03-01T05:06:16;12.87;;;7.20;;
16407;SDS011;8313;49.894;8.084;2023-03-01T05:08:43;14.03;;;6.67;;
16407;SDS011;8313;49.894;8.084;2023-03-01T05:11:10;13.17;;;7.20;;
16407;SDS011;8313;49.894;8.084;2023-03-01T05:13:37;13.40;;;6.60;;
16407;SDS011;8313;49.894;8.084;2023-03-01T05:16:04;12.40;;;6.97;;
16407;SDS011;8313;49.894;8.084;2023-03-01T05:18:31;11.63;;;7.00;;
16407;SDS011;8313;49.894;8.084;2023-03-01T05:21:02;13.17;;;7.10;;
16407;SDS011;8313;49.894;8.084;2023-03-01T05:23:29;9.00;;;5.50;;
16407;SDS011;8313;49.894;8.084;2023-03-01T05:25:58;12.77;;;6.33;;
16407;SDS011;8313;49.894;8.084;2023-03-01T05:28:25;14.47;;;7.50;;
16407;SDS011;8313;49.894;8.084;2023-03-01T05:30:53;10.17;;;6.33;;
16407;SDS011;8313;49.894;8.084;2023-03-01T05:33:19;11.87;;;6.10;;
16407;SDS011;8313;49.894;8.084;2023-03-01T05:35:47;15.03;;;7.73;;
16407;SDS011;8313;49.894;8.084;2023-03-01T05:38:14;15.07;;;7.73;;
16407;SDS011;8313;49.894;8.084;2023-03-01T05:40:41;10.77;;;6.03;;
16407;SDS011;8313;49.894;8.084;2023-03-01T05:43:08;22.03;;;7.10;;
16407;SDS011;8313;49.894;8.084;2023-03-01T05:45:35;12.40;;;6.70;;
16407;SDS011;8313;49.894;8.084;2023-03-01T05:48:02;9.97;;;5.53;;
16407;SDS011;8313;49.894;8.084;2023-03-01T05:50:29;13.60;;;6.83;;
16407;SDS011;8313;49.894;8.084;2023-03-01T05:53:29;9.97;;;6.37;;
16407;SDS011;8313;49.894;8.084;2023-03-01T05:55:48;12.00;;;6.10;;
16407;SDS011;8313;49.894;8.084;2023-03-01T05:58:15;14.40;;;7.97;;
16407;SDS011;8313;49.894;8.084;2023-03-01T06:00:43;11.70;;;6.30;;
16407;SDS011;8313;49.894;8.084;2023-03-01T06:03:10;14.47;;;8.37;;
16407;SDS011;8313;49.894;8.084;2023-03-01T06:05:37;12.83;;;7.20;;
16407;SDS011;8313;49.894;8.084;2023-03-01T06:08:03;11.40;;;6.77;;
16407;SDS011;8313;49.894;8.084;2023-03-01T06:10:29;11.90;;;7.33;;
16407;SDS011;8313;49.894;8.084;2023-03-01T06:12:54;15.20;;;6.97;;
16407;SDS011;8313;49.894;8.084;2023-03-01T06:15:20;16.20;;;7.07;;
16407;SDS011;8313;49.894;8.084;2023-03-01T06:17:46;10.60;;;6.43;;
16407;SDS011;8313;49.894;8.084;2023-03-01T06:22:43;16.33;;;7.63;;
16407;SDS011;8313;49.894;8.084;2023-03-01T06:25:09;13.67;;;7.10;;
16407;SDS011;8313;49.894;8.084;2023-03-01T06:27:37;10.40;;;6.03;;
16407;SDS011;8313;49.894;8.084;2023-03-01T06:30:04;14.97;;;7.50;;
16407;SDS011;8313;49.894;8.084;2023-03-01T06:32:30;10.63;;;5.50;;
16407;SDS011;8313;49.894;8.084;2023-03-01T06:34:56;14.37;;;7.43;;
16407;SDS011;8313;49.894;8.084;2023-03-01T06:37:24;15.87;;;6.73;;
16407;SDS011;8313;49.894;8.084;2023-03-01T06:39:52;14.40;;;7.27;;
16407;SDS011;8313;49.894;8.084;2023-03-01T06:42:18;16.67;;;8.10;;
16407;SDS011;8313;49.894;8.084;2023-03-01T06:44:44;21.33;;;8.77;;
16407;SDS011;8313;49.894;8.084;2023-03-01T06:47:10;12.93;;;7.20;;
16407;SDS011;8313;49.894;8.084;2023-03-01T06:49:36;12.27;;;6.77;;
16407;SDS011;8313;49.894;8.084;2023-03-01T06:52:02;16.73;;;8.30;;
16407;SDS011;8313;49.894;8.084;2023-03-01T06:54:27;18.07;;;8.40;;
16407;SDS011;8313;49.894;8.084;2023-03-01T06:56:53;15.03;;;7.20;;
16407;SDS011;8313;49.894;8.084;2023-03-01T06:59:19;11.67;;;7.07;;
16407;SDS011;8313;49.894;8.084;2023-03-01T07:01:44;14.67;;;7.17;;
16407;SDS011;8313;49.894;8.084;2023-03-01T07:04:10;14.20;;;7.50;;
16407;SDS011;8313;49.894;8.084;2023-03-01T07:06:37;17.80;;;8.90;;
16407;SDS011;8313;49.894;8.084;2023-03-01T07:09:02;12.87;;;6.93;;
16407;SDS011;8313;49.894;8.084;2023-03-01T07:11:28;11.50;;;6.40;;
16407;SDS011;8313;49.894;8.084;2023-03-01T07:13:54;14.43;;;7.30;;
16407;SDS011;8313;49.894;8.084;2023-03-01T07:16:20;15.43;;;6.87;;
16407;SDS011;8313;49.894;8.084;2023-03-01T07:18:46;12.00;;;6.80;;
16407;SDS011;8313;49.894;8.084;2023-03-01T07:21:12;11.57;;;7.10;;
16407;SDS011;8313;49.894;8.084;2023-03-01T07:23:39;12.03;;;6.60;;
16407;SDS011;8313;49.894;8.084;2023-03-01T07:26:05;10.83;;;7.10;;
16407;SDS011;8313;49.894;8.084;2023-03-01T07:28:31;15.40;;;7.60;;
16407;SDS011;8313;49.894;8.084;2023-03-01T07:31:03;12.87;;;6.80;;
16407;SDS011;8313;49.894;8.084;2023-03-01T07:33:32;14.40;;;6.27;;
16407;SDS011;8313;49.894;8.084;2023-03-01T07:35:59;13.33;;;6.83;;
16407;SDS011;8313;49.894;8.084;2023-03-01T07:38:26;13.63;;;6.17;;
16407;SDS011;8313;49.894;8.084;2023-03-01T07:40:52;10.77;;;6.97;;
16407;SDS011;8313;49.894;8.084;2023-03-01T07:43:18;12.00;;;6.80;;
16407;SDS011;8313;49.894;8.084;2023-03-01T07:45:45;11.83;;;6.90;;
16407;SDS011;8313;49.894;8.084;2023-03-01T07:48:11;10.83;;;7.77;;
16407;SDS011;8313;49.894;8.084;2023-03-01T07:50:37;12.40;;;7.37;;
16407;SDS011;8313;49.894;8.084;2023-03-01T07:53:02;14.30;;;7.77;;
16407;SDS011;8313;49.894;8.084;2023-03-01T07:55:28;11.30;;;7.00;;
16407;SDS011;8313;49.894;8.084;2023-03-01T07:57:54;11.13;;;7.30;;
16407;SDS011;8313;49.894;8.084;2023-03-01T08:00:20;14.30;;;6.67;;
16407;SDS011;8313;49.894;8.084;2023-03-01T08:02:45;11.87;;;6.73;;
16407;SDS011;8313;49.894;8.084;2023-03-01T08:05:11;12.03;;;7.67;;
16407;SDS011;8313;49.894;8.084;2023-03-01T08:07:37;14.53;;;7.27;;
16407;SDS011;8313;49.894;8.084;2023-03-01T08:10:04;14.40;;;8.10;;
16407;SDS011;8313;49.894;8.084;2023-03-01T08:12:29;13.73;;;6.07;;
16407;SDS011;8313;49.894;8.084;2023-03-01T08:14:55;12.90;;;6.90;;
16407;SDS011;8313;49.894;8.084;2023-03-01T08:17:22;13.47;;;7.30;;
16407;SDS011;8313;49.894;8.084;2023-03-01T08:19:48;12.90;;;7.93;;
16407;SDS011;8313;49.894;8.084;2023-03-01T08:22:13;14.20;;;7.07;;
16407;SDS011;8313;49.894;8.084;2023-03-01T08:24:39;10.37;;;6.30;;
16407;SDS011;8313;49.894;8.084;2023-03-01T08:27:05;13.97;;;7.57;;
16407;SDS011;8313;49.894;8.084;2023-03-01T08:29:31;16.50;;;8.10;;
16407;SDS011;8313;49.894;8.084;2023-03-01T08:31:57;12.00;;;7.33;;
16407;SDS011;8313;49.894;8.084;2023-03-01T08:34:23;11.47;;;7.47;;
16407;SDS011;8313;49.894;8.084;2023-03-01T08:36:48;15.77;;;8.37;;
16407;SDS011;8313;49.894;8.084;2023-03-01T08:39:17;13.90;;;8.37;;
16407;SDS011;8313;49.894;8.084;2023-03-01T08:41:44;11.53;;;6.60;;
16407;SDS011;8313;49.894;8.084;2023-03-01T08:44:11;13.13;;;7.57;;
16407;SDS011;8313;49.894;8.084;2023-03-01T08:46:39;16.67;;;8.27;;
16407;SDS011;8313;49.894;8.084;2023-03-01T08:49:07;15.63;;;7.93;;
16407;SDS011;8313;49.894;8.084;2023-03-01T08:51:34;13.23;;;7.10;;
16407;SDS011;8313;49.894;8.084;2023-03-01T08:54:05;13.77;;;7.13;;
16407;SDS011;8313;49.894;8.084;2023-03-01T08:56:32;15.10;;;8.00;;
16407;SDS011;8313;49.894;8.084;2023-03-01T08:58:58;12.80;;;8.17;;
16407;SDS011;8313;49.894;8.084;2023-03-01T09:01:24;12.77;;;7.20;;
16407;SDS011;8313;49.894;8.084;2023-03-01T09:03:50;13.53;;;8.07;;
16407;SDS011;8313;49.894;8.084;2023-03-01T09:06:16;9.97;;;7.30;;
16407;SDS011;8313;49.894;8.084;2023-03-01T09:08:42;12.70;;;7.23;;
16407;SDS011;8313;49.894;8.084;2023-03-01T09:11:11;10.77;;;6.73;;
16407;SDS011;8313;49.894;8.084;2023-03-01T09:13:38;16.60;;;8.30;;
16407;SDS011;8313;49.894;8.084;2023-03-01T09:16:04;12.30;;;6.77;;
16407;SDS011;8313;49.894;8.084;2023-03-01T09:18:32;14.47;;;7.77;;
16407;SDS011;8313;49.894;8.084;2023-03-01T09:21:03;17.60;;;8.37;;
16407;SDS011;8313;49.894;8.084;2023-03-01T09:23:33;9.50;;;5.90;;
16407;SDS011;8313;49.894;8.084;2023-03-01T09:26:01;18.27;;;8.30;;
16407;SDS011;8313;49.894;8.084;2023-03-01T09:28:28;20.90;;;9.30;;
16407;SDS011;8313;49.894;8.084;2023-03-01T09:30:53;17.63;;;7.50;;
16407;SDS011;8313;49.894;8.084;2023-03-01T09:33:23;9.70;;;7.00;;
16407;SDS011;8313;49.894;8.084;2023-03-01T09:35:49;16.60;;;7.83;;
16407;SDS011;8313;49.894;8.084;2023-03-01T09:38:14;16.37;;;9.03;;
16407;SDS011;8313;49.894;8.084;2023-03-01T09:40:43;13.67;;;8.70;;
16407;SDS011;8313;49.894;8.084;2023-03-01T09:45:45;13.53;;;8.17;;
16407;SDS011;8313;49.894;8.084;2023-03-01T09:48:16;11.10;;;7.20;;
16407;SDS011;8313;49.894;8.084;2023-03-01T09:50:49;16.37;;;8.70;;
16407;SDS011;8313;49.894;8.084;2023-03-01T09:53:18;15.63;;;7.77;;
16407;SDS011;8313;49.894;8.084;2023-03-01T09:55:58;17.53;;;7.47;;
16407;SDS011;8313;49.894;8.084;2023-03-01T10:00:57;14.57;;;8.13;;
16407;SDS011;8313;49.894;8.084;2023-03-01T10:03:28;15.50;;;9.07;;
16407;SDS011;8313;49.894;8.084;2023-03-01T10:11:31;15.73;;;9.20;;
16407;SDS011;8313;49.894;8.084;2023-03-01T10:16:46;14.20;;;8.63;;
16407;SDS011;8313;49.894;8.084;2023-03-01T10:19:15;16.30;;;9.37;;
16407;SDS011;8313;49.894;8.084;2023-03-01T10:21:47;14.13;;;8.63;;
16407;SDS011;8313;49.894;8.084;2023-03-01T10:24:16;15.53;;;9.07;;
16407;SDS011;8313;49.894;8.084;2023-03-01T10:29:18;18.47;;;8.50;;
16407;SDS011;8313;49.894;8.084;2023-03-01T10:31:51;16.00;;;8.77;;
16407;SDS011;8313;49.894;8.084;2023-03-01T10:34:25;15.50;;;8.93;;
16407;SDS011;8313;49.894;8.084;2023-03-01T10:36:52;15.37;;;8.67;;
16407;SDS011;8313;49.894;8.084;2023-03-01T10:39:22;17.67;;;10.07;;
16407;SDS011;8313;49.894;8.084;2023-03-01T10:49:52;20.73;;;10.77;;
16407;SDS011;8313;49.894;8.084;2023-03-01T10:52:19;18.13;;;10.87;;
16407;SDS011;8313;49.894;8.084;2023-03-01T10:55:03;18.60;;;9.80;;
16407;SDS011;8313;49.894;8.084;2023-03-01T10:57:39;15.00;;;9.13;;
16407;SDS011;8313;49.894;8.084;2023-03-01T11:00:17;18.47;;;11.80;;
16407;SDS011;8313;49.894;8.084;2023-03-01T11:05:35;12.23;;;8.20;;
16407;SDS011;8313;49.894;8.084;2023-03-01T11:08:01;18.70;;;9.53;;
16407;SDS011;8313;49.894;8.084;2023-03-01T11:10:33;14.37;;;8.97;;
16407;SDS011;8313;49.894;8.084;2023-03-01T11:15:42;16.57;;;9.43;;
16407;SDS011;8313;49.894;8.084;2023-03-01T11:18:22;14.77;;;7.83;;
16407;SDS011;8313;49.894;8.084;2023-03-01T11:20:48;15.50;;;9.00;;
16407;SDS011;8313;49.894;8.084;2023-03-01T11:23:17;16.80;;;8.43;;
16407;SDS011;8313;49.894;8.084;2023-03-01T11:25:54;11.43;;;8.03;;
16407;SDS011;8313;49.894;8.084;2023-03-01T11:28:22;14.10;;;8.13;;
16407;SDS011;8313;49.894;8.084;2023-03-01T11:30:53;14.37;;;8.80;;
16407;SDS011;8313;49.894;8.084;2023-03-01T11:36:05;14.83;;;8.93;;
16407;SDS011;8313;49.894;8.084;2023-03-01T11:38:53;14.97;;;8.93;;
16407;SDS011;8313;49.894;8.084;2023-03-01T11:41:21;15.03;;;9.10;;
16407;SDS011;8313;49.894;8.084;2023-03-01T11:44:05;19.10;;;9.10;;
16407;SDS011;8313;49.894;8.084;2023-03-01T11:46:47;14.77;;;9.00;;
16407;SDS011;8313;49.894;8.084;2023-03-01T11:52:34;15.27;;;9.00;;
16407;SDS011;8313;49.894;8.084;2023-03-01T12:01:09;14.00;;;8.20;;
16407;SDS011;8313;49.894;8.084;2023-03-01T12:17:13;17.13;;;9.07;;
16407;SDS011;8313;49.894;8.084;2023-03-01T12:22:44;21.23;;;12.33;;
16407;SDS011;8313;49.894;8.084;2023-03-01T12:28:08;25.13;;;10.70;;
16407;SDS011;8313;49.894;8.084;2023-03-01T12:39:17;15.10;;;8.40;;
16407;SDS011;8313;49.894;8.084;2023-03-01T12:41:54;12.67;;;7.93;;
16407;SDS011;8313;49.894;8.084;2023-03-01T12:49:56;14.33;;;7.00;;
16407;SDS011;8313;49.894;8.084;2023-03-01T12:52:30;12.73;;;7.40;;
16407;SDS011;8313;49.894;8.084;2023-03-01T12:55:06;15.67;;;7.93;;
16407;SDS011;8313;49.894;8.084;2023-03-01T13:09:24;9.83;;;6.17;;
16407;SDS011;8313;49.894;8.084;2023-03-01T13:11:56;12.80;;;7.80;;
16407;SDS011;8313;49.894;8.084;2023-03-01T13:16:48;13.20;;;7.77;;
16407;SDS011;8313;49.894;8.084;2023-03-01T13:19:16;14.80;;;7.53;;
16407;SDS011;8313;49.894;8.084;2023-03-01T13:21:43;11.67;;;7.20;;
16407;SDS011;8313;49.894;8.084;2023-03-01T13:29:54;8.07;;;5.80;;
16407;SDS011;8313;49.894;8.084;2023-03-01T13:32:29;10.87;;;6.70;;
16407;SDS011;8313;49.894;8.084;2023-03-01T13:37:40;13.43;;;6.27;;
16407;SDS011;8313;49.894;8.084;2023-03-01T13:42:44;10.17;;;5.70;;
16407;SDS011;8313;49.894;8.084;2023-03-01T13:47:43;11.10;;;6.37;;
16407;SDS011;8313;49.894;8.084;2023-03-01T13:50:18;7.93;;;5.37;;
16407;SDS011;8313;49.894;8.084;2023-03-01T13:52:48;9.47;;;5.77;;
16407;SDS011;8313;49.894;8.084;2023-03-01T13:55:19;10.97;;;6.23;;
16407;SDS011;8313;49.894;8.084;2023-03-01T13:57:59;9.17;;;5.53;;
16407;SDS011;8313;49.894;8.084;2023-03-01T14:03:04;9.67;;;5.97;;
16407;SDS011;8313;49.894;8.084;2023-03-01T14:05:42;10.93;;;5.83;;
16407;SDS011;8313;49.894;8.084;2023-03-01T14:08:27;9.40;;;6.53;;
16407;SDS011;8313;49.894;8.084;2023-03-01T14:13:32;13.90;;;6.80;;
16407;SDS011;8313;49.894;8.084;2023-03-01T14:19:23;9.53;;;5.57;;
16407;SDS011;8313;49.894;8.084;2023-03-01T14:22:07;8.10;;;6.10;;
16407;SDS011;8313;49.894;8.084;2023-03-01T14:24:49;8.53;;;5.33;;
16407;SDS011;8313;49.894;8.084;2023-03-01T14:27:18;8.60;;;5.60;;
16407;SDS011;8313;49.894;8.084;2023-03-01T14:29:54;6.67;;;5.53;;
16407;SDS011;8313;49.894;8.084;2023-03-01T14:32:34;10.13;;;5.73;;
16407;SDS011;8313;49.894;8.084;2023-03-01T14:35:00;8.60;;;5.80;;
16407;SDS011;8313;49.894;8.084;2023-03-01T14:37:31;9.27;;;6.27;;
16407;SDS011;8313;49.894;8.084;2023-03-01T14:39:59;9.50;;;6.10;;
16407;SDS011;8313;49.894;8.084;2023-03-01T14:42:29;9.60;;;6.10;;
16407;SDS011;8313;49.894;8.084;2023-03-01T14:45:00;9.67;;;5.07;;
16407;SDS011;8313;49.894;8.084;2023-03-01T14:47:34;8.20;;;6.23;;
16407;SDS011;8313;49.894;8.084;2023-03-01T14:50:14;10.57;;;5.87;;
16407;SDS011;8313;49.894;8.084;2023-03-01T14:52:51;9.10;;;5.43;;
16407;SDS011;8313;49.894;8.084;2023-03-01T14:55:27;10.20;;;4.90;;
16407;SDS011;8313;49.894;8.084;2023-03-01T14:57:57;10.17;;;5.50;;
16407;SDS011;8313;49.894;8.084;2023-03-01T15:00:27;10.43;;;5.37;;
16407;SDS011;8313;49.894;8.084;2023-03-01T15:02:55;10.90;;;7.30;;
16407;SDS011;8313;49.894;8.084;2023-03-01T15:05:29;34.30;;;15.70;;
16407;SDS011;8313;49.894;8.084;2023-03-01T15:07:57;25.93;;;12.93;;
16407;SDS011;8313;49.894;8.084;2023-03-01T15:10:29;12.30;;;8.10;;
16407;SDS011;8313;49.894;8.084;2023-03-01T15:13:09;12.23;;;6.10;;
16407;SDS011;8313;49.894;8.084;2023-03-01T15:15:42;9.60;;;6.87;;
16407;SDS011;8313;49.894;8.084;2023-03-01T15:18:27;16.03;;;6.80;;
16407;SDS011;8313;49.894;8.084;2023-03-01T15:20:54;14.30;;;6.87;;
16407;SDS011;8313;49.894;8.084;2023-03-01T15:23:30;10.53;;;5.37;;
16407;SDS011;8313;49.894;8.084;2023-03-01T15:25:56;9.67;;;5.80;;
16407;SDS011;8313;49.894;8.084;2023-03-01T15:28:26;6.80;;;5.13;;
16407;SDS011;8313;49.894;8.084;2023-03-01T15:30:57;8.33;;;5.60;;
16407;SDS011;8313;49.894;8.084;2023-03-01T15:33:33;8.73;;;5.00;;
16407;SDS011;8313;49.894;8.084;2023-03-01T15:36:47;8.73;;;4.97;;
16407;SDS011;8313;49.894;8.084;2023-03-01T15:38:55;8.00;;;5.07;;
16407;SDS011;8313;49.894;8.084;2023-03-01T15:43:50;6.27;;;4.27;;
16407;SDS011;8313;49.894;8.084;2023-03-01T15:46:30;7.17;;;5.67;;
16407;SDS011;8313;49.894;8.084;2023-03-01T15:48:58;6.10;;;5.23;;
16407;SDS011;8313;49.894;8.084;2023-03-01T15:51:33;9.43;;;4.90;;
16407;SDS011;8313;49.894;8.084;2023-03-01T15:54:10;10.37;;;5.90;;
16407;SDS011;8313;49.894;8.084;2023-03-01T15:56:42;8.07;;;6.00;;
16407;SDS011;8313;49.894;8.084;2023-03-01T15:59:09;9.50;;;6.03;;
16407;SDS011;8313;49.894;8.084;2023-03-01T16:01:43;8.37;;;5.23;;
16407;SDS011;8313;49.894;8.084;2023-03-01T16:04:10;9.63;;;5.60;;
16407;SDS011;8313;49.894;8.084;2023-03-01T16:06:41;11.50;;;5.17;;
16407;SDS011;8313;49.894;8.084;2023-03-01T16:09:07;9.33;;;5.10;;
16407;SDS011;8313;49.894;8.084;2023-03-01T16:11:35;9.30;;;5.60;;
16407;SDS011;8313;49.894;8.084;2023-03-01T16:14:02;16.70;;;5.17;;
16407;SDS011;8313;49.894;8.084;2023-03-01T16:16:28;8.50;;;4.67;;
16407;SDS011;8313;49.894;8.084;2023-03-01T16:18:55;11.20;;;5.63;;
16407;SDS011;8313;49.894;8.084;2023-03-01T16:21:22;11.70;;;5.00;;
16407;SDS011;8313;49.894;8.084;2023-03-01T16:23:49;8.07;;;5.00;;
16407;SDS011;8313;49.894;8.084;2023-03-01T16:26:16;8.60;;;6.13;;
16407;SDS011;8313;49.894;8.084;2023-03-01T16:28:42;12.93;;;5.50;;
16407;SDS011;8313;49.894;8.084;2023-03-01T16:31:09;9.67;;;4.60;;
16407;SDS011;8313;49.894;8.084;2023-03-01T16:33:35;8.47;;;5.77;;
16407;SDS011;8313;49.894;8.084;2023-03-01T16:36:06;9.00;;;5.20;;
16407;SDS011;8313;49.894;8.084;2023-03-01T16:38:32;7.97;;;5.10;;
16407;SDS011;8313;49.894;8.084;2023-03-01T16:40:59;8.87;;;5.10;;
16407;SDS011;8313;49.894;8.084;2023-03-01T16:43:25;8.40;;;5.33;;
16407;SDS011;8313;49.894;8.084;2023-03-01T16:45:51;8.10;;;4.73;;
16407;SDS011;8313;49.894;8.084;2023-03-01T16:48:17;9.17;;;5.40;;
16407;SDS011;8313;49.894;8.084;2023-03-01T16:50:43;8.47;;;5.43;;
16407;SDS011;8313;49.894;8.084;2023-03-01T16:53:08;6.87;;;4.67;;
16407;SDS011;8313;49.894;8.084;2023-03-01T16:55:34;7.53;;;5.63;;
16407;SDS011;8313;49.894;8.084;2023-03-01T16:58:07;11.13;;;5.53;;
16407;SDS011;8313;49.894;8.084;2023-03-01T17:00:37;12.27;;;6.23;;
16407;SDS011;8313;49.894;8.084;2023-03-01T17:03:03;8.93;;;4.77;;
16407;SDS011;8313;49.894;8.084;2023-03-01T17:05:28;11.80;;;6.10;;
16407;SDS011;8313;49.894;8.084;2023-03-01T17:07:54;10.90;;;6.20;;